createdAt,value
2023-02-02T00:01:25.177Z,56.21
2023-02-02T00:03:53.036Z,56.64
2023-02-02T00:06:22.647Z,55.51
2023-02-02T00:08:50.071Z,56.11
2023-02-02T00:11:19.583Z,56.07
2023-02-02T00:13:47.388Z,56.03
2023-02-02T00:16:31.481Z,56.31
2023-02-02T00:19:01.890Z,56.22
2023-02-02T00:21:29.322Z,56.64
2023-02-02T00:23:56.776Z,56.86
2023-02-02T00:26:24.578Z,56.96
2023-02-02T00:28:52.905Z,56.49
2023-02-02T00:31:20.515Z,55.99
2023-02-02T00:33:49.383Z,56.10
2023-02-02T00:36:18.464Z,56.33
2023-02-02T00:38:46.451Z,56.11
2023-02-02T00:41:14.120Z,56.15
2023-02-02T00:43:41.586Z,56.86
2023-02-02T00:46:19.288Z,56.45
2023-02-02T00:48:46.918Z,56.66
2023-02-02T00:51:14.279Z,56.94
2023-02-02T00:53:41.732Z,57.33
2023-02-02T00:56:09.125Z,56.38
2023-02-02T00:58:36.743Z,56.34
2023-02-02T01:01:04.263Z,56.53
2023-02-02T01:03:31.951Z,55.85
2023-02-02T01:05:59.316Z,55.73
2023-02-02T01:08:26.766Z,56.02
2023-02-02T01:10:54.223Z,56.04
2023-02-02T01:13:23.089Z,56.82
2023-02-02T01:15:55.299Z,56.53
2023-02-02T01:18:22.860Z,57.15
2023-02-02T01:21:17.455Z,56.62
2023-02-02T01:23:45.247Z,57.58
2023-02-02T01:26:13.664Z,56.05
2023-02-02T01:28:41.712Z,55.71
2023-02-02T01:31:14.916Z,55.23
2023-02-02T01:33:44.051Z,55.93
2023-02-02T01:36:18.298Z,55.68
2023-02-02T01:38:46.219Z,55.40
2023-02-02T01:41:22.473Z,55.23
2023-02-02T01:43:56.527Z,55.19
2023-02-02T01:46:44.076Z,55.89
2023-02-02T01:49:16.145Z,56.19
2023-02-02T01:51:53.448Z,55.44
2023-02-02T01:54:38.863Z,55.75
2023-02-02T01:57:12.776Z,56.72
2023-02-02T01:59:43.119Z,57.14
2023-02-02T02:02:11.357Z,57.46
2023-02-02T02:04:39.136Z,57.46
2023-02-02T02:07:08.145Z,56.29
2023-02-02T02:09:37.171Z,57.36
2023-02-02T02:12:13.815Z,56.67
2023-02-02T02:15:05.995Z,55.75
2023-02-02T02:17:49.105Z,56.81
2023-02-02T02:20:44.222Z,56.97
2023-02-02T02:24:21.012Z,55.68
2023-02-02T02:27:13.333Z,56.08
2023-02-02T02:30:16.158Z,56.18
2023-02-02T02:33:04.000Z,55.80
2023-02-02T02:36:03.081Z,55.25
2023-02-02T02:38:36.936Z,55.75
2023-02-02T02:41:12.280Z,56.83
2023-02-02T02:43:43.957Z,56.46
2023-02-02T02:46:13.088Z,55.61
2023-02-02T02:48:45.305Z,55.14
2023-02-02T02:51:44.032Z,54.93
2023-02-02T02:54:20.225Z,55.35
2023-02-02T02:57:12.708Z,55.04
2023-02-02T03:00:02.199Z,55.51
2023-02-02T03:02:41.089Z,55.68
2023-02-02T03:05:44.515Z,55.50
2023-02-02T03:08:27.542Z,55.04
2023-02-02T03:10:58.132Z,54.80
2023-02-02T03:13:27.072Z,54.53
2023-02-02T03:15:54.731Z,54.24
2023-02-02T03:18:25.829Z,54.24
2023-02-02T03:20:53.327Z,55.27
2023-02-02T03:23:20.785Z,55.11
2023-02-02T03:25:48.723Z,55.19
2023-02-02T03:28:17.327Z,54.49
2023-02-02T03:30:46.626Z,55.50
2023-02-02T03:33:16.154Z,55.21
2023-02-02T03:35:43.731Z,55.00
2023-02-02T03:38:12.853Z,55.47
2023-02-02T03:40:41.353Z,54.77
2023-02-02T03:43:09.191Z,55.68
2023-02-02T03:45:37.574Z,55.60
2023-02-02T03:48:06.102Z,55.40
2023-02-02T03:50:33.658Z,54.84
2023-02-02T03:53:01.028Z,55.20
2023-02-02T03:55:28.615Z,55.61
2023-02-02T03:57:56.039Z,55.27
2023-02-02T04:00:23.649Z,54.80
2023-02-02T04:02:51.080Z,55.52
2023-02-02T04:05:18.940Z,55.11
2023-02-02T04:07:46.238Z,56.03
2023-02-02T04:10:13.663Z,54.80
2023-02-02T04:12:41.744Z,55.49
2023-02-02T04:15:09.491Z,55.89
2023-02-02T04:17:36.861Z,55.26
2023-02-02T04:20:06.080Z,55.77
2023-02-02T04:22:34.208Z,56.08
2023-02-02T04:25:01.832Z,55.58
2023-02-02T04:27:32.854Z,55.15
2023-02-02T04:30:00.593Z,54.78
2023-02-02T04:32:27.955Z,54.37
2023-02-02T04:34:55.398Z,53.96
2023-02-02T04:37:22.867Z,53.39
2023-02-02T04:39:51.039Z,53.47
2023-02-02T04:42:18.465Z,54.11
2023-02-02T04:44:46.412Z,54.46
2023-02-02T04:47:13.798Z,54.40
2023-02-02T04:49:41.310Z,54.48
2023-02-02T04:52:08.740Z,55.24
2023-02-02T04:54:36.275Z,54.82
2023-02-02T04:57:03.730Z,55.29
2023-02-02T04:59:31.300Z,54.81
2023-02-02T05:02:02.786Z,54.13
2023-02-02T05:04:30.411Z,54.22
2023-02-02T05:06:58.567Z,54.12
2023-02-02T05:09:26.380Z,54.65
2023-02-02T05:11:53.828Z,54.06
2023-02-02T05:14:21.430Z,53.45
2023-02-02T05:16:50.263Z,53.71
2023-02-02T05:19:17.836Z,53.68
2023-02-02T05:21:45.799Z,53.93
2023-02-02T05:24:13.254Z,54.37
2023-02-02T05:26:40.719Z,55.41
2023-02-02T05:29:09.488Z,54.82
2023-02-02T05:31:36.784Z,54.20
2023-02-02T05:34:05.227Z,54.67
2023-02-02T05:36:32.743Z,54.39
2023-02-02T05:39:00.787Z,53.95
2023-02-02T05:41:28.152Z,54.24
2023-02-02T05:43:55.562Z,54.17
2023-02-02T05:46:22.948Z,54.50
2023-02-02T05:48:50.497Z,55.16
2023-02-02T05:51:29.662Z,54.13
2023-02-02T05:53:58.430Z,53.43
2023-02-02T05:56:27.274Z,54.72
2023-02-02T05:58:54.752Z,54.59
2023-02-02T06:01:22.494Z,54.27
2023-02-02T06:03:50.198Z,53.55
2023-02-02T06:06:17.688Z,53.32
2023-02-02T06:08:45.186Z,53.83
2023-02-02T06:11:14.622Z,53.76
2023-02-02T06:13:45.829Z,53.84
2023-02-02T06:16:14.036Z,53.43
2023-02-02T06:18:41.571Z,53.00
2023-02-02T06:21:09.129Z,52.47
2023-02-02T06:23:36.774Z,53.56
2023-02-02T06:26:04.916Z,52.53
2023-02-02T06:28:32.468Z,52.91
2023-02-02T06:31:11.862Z,52.33
2023-02-02T06:33:40.725Z,52.02
2023-02-02T06:36:08.391Z,51.48
2023-02-02T06:38:35.983Z,51.28
2023-02-02T06:41:03.948Z,52.38
2023-02-02T06:43:31.574Z,51.77
2023-02-02T06:45:59.092Z,51.33
2023-02-02T06:48:27.289Z,51.36
2023-02-02T06:50:54.690Z,51.36
2023-02-02T06:53:25.098Z,52.12
2023-02-02T06:55:55.679Z,51.35
2023-02-02T06:58:23.431Z,50.57
2023-02-02T07:00:51.025Z,50.51
2023-02-02T07:03:21.555Z,50.22
2023-02-02T07:05:49.635Z,51.69
2023-02-02T07:08:17.429Z,52.31
2023-02-02T07:11:11.260Z,51.91
2023-02-02T07:13:33.967Z,51.31
2023-02-02T07:16:01.417Z,51.97
2023-02-02T07:18:28.904Z,52.64
2023-02-02T07:20:59.745Z,52.52
2023-02-02T07:23:31.327Z,52.28
2023-02-02T07:26:07.044Z,54.13
2023-02-02T07:28:35.114Z,54.03
2023-02-02T07:31:14.536Z,53.00
2023-02-02T07:33:43.739Z,52.15
2023-02-02T07:36:12.396Z,53.41
2023-02-02T07:38:39.881Z,53.01
2023-02-02T07:41:07.402Z,52.21
2023-02-02T07:43:34.903Z,51.60
2023-02-02T07:46:03.804Z,52.75
2023-02-02T07:48:31.548Z,51.96
2023-02-02T07:51:00.741Z,51.79
2023-02-02T07:53:28.939Z,52.05
2023-02-02T07:56:34.971Z,51.49
2023-02-02T07:59:02.581Z,50.60
2023-02-02T08:01:30.297Z,50.65
2023-02-02T08:04:00.813Z,50.63
2023-02-02T08:06:34.683Z,49.81
2023-02-02T08:09:03.779Z,50.74
2023-02-02T08:11:31.651Z,50.15
2023-02-02T08:14:01.623Z,50.62
2023-02-02T08:16:30.910Z,49.91
2023-02-02T08:18:58.493Z,49.46
2023-02-02T08:21:26.101Z,49.96
2023-02-02T08:23:54.064Z,50.19
2023-02-02T08:26:24.832Z,49.58
2023-02-02T08:28:55.212Z,50.03
2023-02-02T08:31:27.204Z,48.91
2023-02-02T08:33:55.279Z,48.40
2023-02-02T08:36:24.553Z,48.40
2023-02-02T08:38:52.893Z,48.75
2023-02-02T08:41:23.095Z,48.46
2023-02-02T08:43:51.266Z,48.96
2023-02-02T08:46:20.890Z,48.49
2023-02-02T08:48:49.071Z,48.55
2023-02-02T08:51:19.032Z,48.45
2023-02-02T08:53:47.051Z,49.20
2023-02-02T08:56:20.623Z,48.52
2023-02-02T08:58:53.837Z,48.73
2023-02-02T09:01:27.033Z,49.40
2023-02-02T09:03:59.693Z,49.30
2023-02-02T09:06:32.925Z,48.64
2023-02-02T09:09:01.359Z,48.66
2023-02-02T09:11:29.248Z,49.03
2023-02-02T09:13:59.209Z,48.75
2023-02-02T09:16:27.547Z,48.14
2023-02-02T09:18:56.567Z,48.50
2023-02-02T09:21:24.978Z,48.22
2023-02-02T09:23:54.012Z,48.36
2023-02-02T09:26:27.174Z,48.02
2023-02-02T09:29:02.705Z,47.26
2023-02-02T09:31:33.953Z,48.07
2023-02-02T09:34:03.442Z,48.04
2023-02-02T09:36:32.016Z,48.16
2023-02-02T09:38:59.414Z,48.57
2023-02-02T09:41:39.060Z,48.71
2023-02-02T09:44:25.818Z,48.66
2023-02-02T09:47:19.798Z,47.91
2023-02-02T09:49:59.450Z,47.91
2023-02-02T09:52:44.125Z,47.76
2023-02-02T09:55:38.211Z,47.43
2023-02-02T09:58:26.802Z,48.04
2023-02-02T10:01:14.874Z,48.40
2023-02-02T10:04:02.435Z,47.44
2023-02-02T10:06:40.463Z,47.58
2023-02-02T10:09:40.144Z,46.81
2023-02-02T10:12:34.279Z,46.36
2023-02-02T10:15:20.869Z,46.21
2023-02-02T10:18:07.089Z,46.10
2023-02-02T10:20:53.094Z,45.70
2023-02-02T10:23:42.013Z,45.01
2023-02-02T10:26:19.960Z,45.38
2023-02-02T10:29:14.967Z,44.34
2023-02-02T10:31:47.365Z,44.99
2023-02-02T10:34:33.237Z,43.33
2023-02-02T10:37:06.319Z,44.24
2023-02-02T10:39:52.244Z,43.54
2023-02-02T10:42:34.343Z,43.44
2023-02-02T10:45:14.780Z,43.82
2023-02-02T10:47:42.852Z,43.99
2023-02-02T10:50:13.307Z,44.25
2023-02-02T10:53:02.018Z,43.85
2023-02-02T10:55:39.295Z,44.90
2023-02-02T10:58:12.876Z,44.57
2023-02-02T11:01:04.979Z,44.26
2023-02-02T11:03:33.479Z,44.64
2023-02-02T11:06:21.182Z,44.87
2023-02-02T11:08:57.106Z,45.31
2023-02-02T11:11:35.141Z,45.57
2023-02-02T11:14:14.109Z,45.18
2023-02-02T11:16:44.531Z,43.82
2023-02-02T11:19:18.143Z,44.42
2023-02-02T11:21:48.658Z,45.38
2023-02-02T11:24:30.295Z,45.36
2023-02-02T11:27:23.823Z,43.80
2023-02-02T11:29:57.242Z,44.85
2023-02-02T11:32:34.307Z,44.34
2023-02-02T11:35:04.943Z,44.62
2023-02-02T11:37:36.296Z,44.71
2023-02-02T11:40:28.921Z,44.39
2023-02-02T11:42:59.555Z,44.52
2023-02-02T11:45:41.538Z,45.09
2023-02-02T11:48:20.647Z,45.15
2023-02-02T11:50:54.194Z,45.66
2023-02-02T11:53:31.720Z,45.33
2023-02-02T11:56:04.810Z,45.70
2023-02-02T11:58:49.659Z,45.83
2023-02-02T12:01:34.269Z,45.82
2023-02-02T12:04:25.805Z,45.85
2023-02-02T12:06:53.444Z,46.21
2023-02-02T12:09:25.853Z,45.98
2023-02-02T12:12:02.546Z,45.61
2023-02-02T12:14:59.842Z,44.78
2023-02-02T12:17:45.415Z,45.67
2023-02-02T12:20:47.043Z,45.08
2023-02-02T12:23:37.510Z,45.00
2023-02-02T12:26:29.092Z,45.07
2023-02-02T12:29:24.560Z,45.20
2023-02-02T12:32:01.334Z,45.44
2023-02-02T12:34:48.239Z,45.40
2023-02-02T12:37:45.900Z,46.03
2023-02-02T12:40:56.040Z,46.67
2023-02-02T12:43:42.523Z,46.38
2023-02-02T12:46:29.014Z,46.70
2023-02-02T12:49:19.635Z,46.67
2023-02-02T12:51:56.198Z,46.53
2023-02-02T12:54:34.998Z,46.22
2023-02-02T12:57:45.709Z,47.18
2023-02-02T13:00:35.554Z,46.54
2023-02-02T13:03:44.492Z,47.17
2023-02-02T13:06:30.014Z,46.86
2023-02-02T13:09:27.202Z,46.41
2023-02-02T13:12:01.381Z,46.26
2023-02-02T13:14:51.890Z,46.95
2023-02-02T13:17:27.643Z,48.62
2023-02-02T13:20:04.723Z,47.29
2023-02-02T13:22:42.465Z,47.61
2023-02-02T13:25:30.849Z,46.96
2023-02-02T13:28:02.498Z,47.69
2023-02-02T13:30:38.544Z,48.47
2023-02-02T13:33:16.228Z,48.56
2023-02-02T13:35:53.925Z,48.40
2023-02-02T13:38:26.864Z,48.61
2023-02-02T13:40:56.886Z,48.13
2023-02-02T13:44:16.060Z,48.25
2023-02-02T13:46:54.507Z,48.14
2023-02-02T13:49:40.988Z,47.08
2023-02-02T13:52:42.059Z,47.51
2023-02-02T13:55:30.916Z,47.97
2023-02-02T13:58:18.832Z,49.10
2023-02-02T14:00:53.386Z,49.30
2023-02-02T14:03:29.240Z,48.78
2023-02-02T14:06:10.318Z,48.61
2023-02-02T14:08:43.675Z,49.10
2023-02-02T14:11:28.272Z,49.72
2023-02-02T14:14:19.615Z,49.25
2023-02-02T14:16:50.158Z,50.62
2023-02-02T14:19:35.719Z,50.18
2023-02-02T14:22:10.728Z,49.28
2023-02-02T14:24:37.894Z,49.50
2023-02-02T14:27:08.951Z,49.99
2023-02-02T14:29:39.682Z,50.59
2023-02-02T14:32:07.237Z,50.43
2023-02-02T14:34:45.179Z,50.89
2023-02-02T14:37:24.807Z,51.90
2023-02-02T14:40:07.553Z,51.37
2023-02-02T14:43:41.616Z,51.68
2023-02-02T14:46:14.847Z,51.72
2023-02-02T14:48:44.520Z,52.06
2023-02-02T14:51:33.378Z,51.96
2023-02-02T14:54:05.299Z,51.90
2023-02-02T14:56:38.727Z,52.63
2023-02-02T14:59:08.020Z,52.97
2023-02-02T15:01:39.111Z,53.02
2023-02-02T15:04:22.043Z,52.04
2023-02-02T15:06:53.099Z,51.94
2023-02-02T15:09:20.563Z,52.69
2023-02-02T15:12:03.173Z,52.18
2023-02-02T15:15:04.498Z,51.92
2023-02-02T15:17:48.983Z,51.33
2023-02-02T15:20:37.273Z,51.06
2023-02-02T15:23:17.687Z,51.60
2023-02-02T15:25:54.400Z,51.89
2023-02-02T15:28:52.662Z,51.67
2023-02-02T15:31:29.085Z,52.17
2023-02-02T15:34:01.561Z,51.97
2023-02-02T15:36:35.967Z,51.73
2023-02-02T15:39:29.029Z,51.02
2023-02-02T15:42:17.512Z,51.16
2023-02-02T15:44:46.023Z,51.50
2023-02-02T15:47:18.628Z,51.25
2023-02-02T15:49:46.556Z,51.38
2023-02-02T15:52:17.461Z,50.34
2023-02-02T15:54:52.074Z,51.12
2023-02-02T15:57:38.507Z,50.50
2023-02-02T16:00:26.453Z,51.11
2023-02-02T16:03:05.072Z,51.28
2023-02-02T16:05:32.432Z,51.13
2023-02-02T16:08:05.953Z,51.78
2023-02-02T16:10:35.752Z,50.86
2023-02-02T16:13:04.002Z,51.98
2023-02-02T16:15:33.053Z,51.25
2023-02-02T16:18:02.709Z,51.48
2023-02-02T16:20:33.627Z,51.58
2023-02-02T16:23:06.298Z,52.32
2023-02-02T16:25:44.985Z,52.33
2023-02-02T16:28:18.848Z,51.91
2023-02-02T16:30:46.562Z,51.95
2023-02-02T16:33:33.859Z,52.78
2023-02-02T16:36:04.352Z,52.74
2023-02-02T16:38:37.592Z,52.12
2023-02-02T16:41:13.817Z,52.22
2023-02-02T16:43:42.858Z,51.52
2023-02-02T16:46:15.551Z,51.70
2023-02-02T16:48:57.443Z,52.21
2023-02-02T16:51:30.781Z,51.91
2023-02-02T16:54:14.509Z,52.09
2023-02-02T16:56:45.419Z,52.27
2023-02-02T16:59:15.743Z,52.65
2023-02-02T17:01:51.176Z,52.05
2023-02-02T17:04:34.415Z,52.38
2023-02-02T17:07:13.592Z,52.31
2023-02-02T17:09:43.664Z,51.40
2023-02-02T17:12:32.182Z,52.08
2023-02-02T17:15:34.477Z,52.20
2023-02-02T17:18:04.380Z,52.69
2023-02-02T17:20:34.788Z,52.72
2023-02-02T17:23:07.111Z,52.30
2023-02-02T17:25:42.881Z,52.59
2023-02-02T17:28:12.775Z,52.90
2023-02-02T17:30:42.158Z,52.91
2023-02-02T17:33:17.582Z,53.14
2023-02-02T17:35:56.084Z,51.77
2023-02-02T17:38:25.207Z,51.28
2023-02-02T17:40:53.658Z,51.83
2023-02-02T17:43:21.699Z,51.88
2023-02-02T17:45:49.583Z,51.73
2023-02-02T17:48:17.404Z,51.99
2023-02-02T17:50:45.602Z,52.17
2023-02-02T17:53:18.772Z,52.28
2023-02-02T17:55:47.773Z,52.02
2023-02-02T17:58:17.778Z,52.23
2023-02-02T18:00:53.465Z,52.03
2023-02-02T18:03:27.988Z,52.60
2023-02-02T18:05:57.869Z,52.67
2023-02-02T18:08:25.486Z,52.90
2023-02-02T18:10:52.850Z,53.10
2023-02-02T18:13:22.487Z,52.92
2023-02-02T18:15:51.030Z,53.04
2023-02-02T18:18:18.165Z,53.50
2023-02-02T18:20:48.316Z,53.74
2023-02-02T18:23:17.453Z,54.40
2023-02-02T18:25:44.991Z,54.14
2023-02-02T18:28:16.588Z,54.05
2023-02-02T18:30:45.043Z,54.57
2023-02-02T18:33:13.885Z,54.73
2023-02-02T18:35:42.801Z,55.83
2023-02-02T18:38:10.743Z,56.61
2023-02-02T18:40:38.657Z,55.80
2023-02-02T18:43:06.504Z,56.90
2023-02-02T18:45:33.974Z,57.36
2023-02-02T18:48:01.358Z,57.57
2023-02-02T18:50:28.953Z,57.25
2023-02-02T18:52:57.024Z,57.97
2023-02-02T18:55:24.812Z,57.39
2023-02-02T18:57:52.955Z,56.94
2023-02-02T19:00:22.279Z,57.62
2023-02-02T19:02:49.680Z,57.24
2023-02-02T19:05:36.026Z,57.96
2023-02-02T19:08:04.277Z,58.00
2023-02-02T19:10:31.865Z,57.46
2023-02-02T19:13:14.471Z,57.83
2023-02-02T19:15:42.654Z,59.36
2023-02-02T19:18:24.717Z,58.49
2023-02-02T19:20:53.295Z,58.77
2023-02-02T19:23:23.863Z,60.17
2023-02-02T19:25:56.822Z,59.78
2023-02-02T19:28:30.030Z,61.25
2023-02-02T19:31:00.454Z,61.91
2023-02-02T19:33:43.858Z,63.32
2023-02-02T19:36:20.070Z,61.42
2023-02-02T19:38:48.956Z,61.19
2023-02-02T19:41:25.424Z,61.33
2023-02-02T19:43:58.794Z,62.42
2023-02-02T19:46:28.265Z,63.10
2023-02-02T19:49:13.699Z,62.36
2023-02-02T19:51:45.823Z,61.90
2023-02-02T19:54:24.779Z,62.61
2023-02-02T19:57:10.905Z,62.62
2023-02-02T19:59:38.442Z,62.74
2023-02-02T20:02:42.061Z,63.32
2023-02-02T20:05:12.948Z,63.75
2023-02-02T20:07:40.455Z,63.03
2023-02-02T20:10:19.396Z,63.82
2023-02-02T20:12:47.023Z,63.33
2023-02-02T20:15:35.045Z,63.33
2023-02-02T20:18:11.177Z,64.88
2023-02-02T20:20:41.073Z,64.06
2023-02-02T20:23:43.067Z,63.86
2023-02-02T20:26:21.000Z,63.45
2023-02-02T20:28:49.444Z,63.37
2023-02-02T20:31:19.023Z,63.24
2023-02-02T20:33:57.968Z,64.42
2023-02-02T20:36:39.667Z,63.73
2023-02-02T20:39:16.286Z,65.38
2023-02-02T20:41:44.161Z,66.85
2023-02-02T20:44:12.214Z,65.94
2023-02-02T20:46:39.846Z,67.11
2023-02-02T20:49:07.463Z,66.02
2023-02-02T20:51:35.139Z,66.03
2023-02-02T20:54:02.701Z,66.40
2023-02-02T20:56:30.181Z,66.71
2023-02-02T20:58:57.566Z,67.54
2023-02-02T21:01:26.454Z,68.09
2023-02-02T21:03:54.003Z,67.86
2023-02-02T21:06:21.479Z,67.14
2023-02-02T21:08:52.663Z,66.80
2023-02-02T21:11:20.455Z,67.24
2023-02-02T21:13:48.668Z,67.04
2023-02-02T21:16:16.467Z,66.43
2023-02-02T21:18:47.405Z,66.18
2023-02-02T21:21:16.612Z,65.01
2023-02-02T21:23:48.834Z,65.31
2023-02-02T21:28:51.787Z,64.39
2023-02-02T21:31:19.706Z,64.64
2023-02-02T21:33:50.132Z,65.74
2023-02-02T21:36:21.085Z,66.49
2023-02-02T21:38:48.622Z,67.04
2023-02-02T21:41:16.630Z,67.44
2023-02-02T21:43:44.006Z,67.22
2023-02-02T21:46:29.590Z,67.54
2023-02-02T21:48:57.088Z,66.83
2023-02-02T21:51:29.136Z,66.66
2023-02-02T21:53:58.121Z,65.46
2023-02-02T21:56:36.576Z,65.66
2023-02-02T21:59:16.732Z,66.40
2023-02-02T22:01:45.255Z,67.03
2023-02-02T22:04:18.314Z,68.12
2023-02-02T22:06:48.273Z,67.48
2023-02-02T22:09:24.603Z,66.33
2023-02-02T22:11:56.921Z,66.16
2023-02-02T22:14:37.355Z,65.71
2023-02-02T22:17:25.813Z,66.68
2023-02-02T22:20:01.555Z,66.98
2023-02-02T22:22:35.722Z,66.80
2023-02-02T22:25:16.613Z,66.37
2023-02-02T22:27:51.480Z,66.15
2023-02-02T22:30:34.107Z,66.27
2023-02-02T22:33:01.695Z,65.89
2023-02-02T22:35:29.339Z,65.70
2023-02-02T22:37:56.802Z,65.51
2023-02-02T22:40:25.183Z,65.20
2023-02-02T22:42:55.520Z,65.15
2023-02-02T22:45:23.481Z,65.68
2023-02-02T22:47:51.544Z,65.48
2023-02-02T22:50:22.802Z,65.74
2023-02-02T22:52:50.686Z,66.30
2023-02-02T22:55:18.623Z,65.57
2023-02-02T22:57:46.278Z,65.72
2023-02-02T23:00:23.426Z,65.01
2023-02-02T23:02:51.426Z,65.76
2023-02-02T23:05:20.299Z,65.48
2023-02-02T23:07:49.208Z,65.87
2023-02-02T23:10:19.672Z,64.95
2023-02-02T23:12:48.442Z,64.40
2023-02-02T23:15:16.229Z,64.35
2023-02-02T23:17:43.735Z,63.85
2023-02-02T23:20:14.581Z,64.14
2023-02-02T23:22:42.039Z,64.05
2023-02-02T23:25:10.773Z,64.16
2023-02-02T23:27:38.513Z,64.01
2023-02-02T23:30:07.805Z,63.65
2023-02-02T23:32:36.159Z,63.71
2023-02-02T23:35:04.056Z,63.77
2023-02-02T23:37:32.119Z,63.61
2023-02-02T23:39:59.560Z,63.89
2023-02-02T23:42:27.225Z,63.59
2023-02-02T23:44:54.518Z,63.69
2023-02-02T23:47:22.152Z,63.82
2023-02-02T23:49:49.480Z,63.91
2023-02-02T23:52:17.317Z,63.73
2023-02-02T23:54:45.213Z,63.86
2023-02-02T23:57:12.706Z,63.75
2023-02-02T23:59:40.082Z,64.02
